KAIA/AIA METAR and TAF weather

Enter ICAO airport designator
Station Type Date Time Source
KAIA METAR 2021/09/27 07:53 UTC NOAA

KAIA 270753Z AUTO 30003KT 5SM HZ CLR 08/04 A2993 RMK AO2 SLP096 T00830039


Station Type Date Time Source
KAIA Decoded METAR 2021/09/27 07:53 UTC NOAA

ALLIANCE MUNICIPAL AIRPORT, NE, United States (KAIA) 42-03N 102-48W 1196M
Sep 27, 2021 - 03:53 AM EDT / 2021.09.27 0753 UTC
Wind: from the WNW (300 degrees) at 3 MPH (3 KT):0
Visibility: 5 mile(s):0
Sky conditions: clear
Weather: haze
Temperature: 46.9 F (8.3 C)
Dew Point: 39.0 F (3.9 C)
Relative Humidity: 73%
Pressure (altimeter): 29.93 in. Hg (1013 hPa)
ob: KAIA 270753Z AUTO 30003KT 5SM HZ CLR 08/04 A2993 RMK AO2 SLP096 T00830039
cycle: 8

Station Type Date Time Source
KAIA TAF 2021/09/27 06:22 UTC NOAA

TAF KAIA 270520Z 2706/2806 VRB04KT P6SM SKC
FM271100 24006KT P6SM SKC
FM272000 20007KT P6SM SKC

Example: see airport list